Terminal Aerodrome Forecast
Issued by NWS Austin/San Antonio, TX

Current Version | Previous Version | Text Only | Print | Product List | Glossary Off
Versions: 1 2 3 4 5 6 7 8 9 10 11 12 13 14 15 16 17 18 19 20 21 22 23 24 25

958
FTUS44 KEWX 251734
TAFAUS
TAF
KAUS 251734Z 2518/2624 07010KT P6SM VCSH BKN035
     FM260200 07005KT P6SM SCT080 BKN200
     FM260700 07005KT P6SM BKN015
     FM261500 07005KT P6SM BKN025
     FM261700 07006KT P6SM VCSH BKN035=

USA.gov is the U.S. government's official web portal to all federal, state and local government web resources and services.